Mi Chai, Thailand

6:25 PM ICT on August 20, 2014 (GMT +0700)
Wattay International | Change Station
CLOSE
Current Station
Airport
Location: Vientiane,
Elevation: 561 ft
Nearby Weather Stations

Elev 561 ft 17.95 °N, 102.57 °E | Updated 25 minutes ago

Thunderstorm
Thunderstorm
82 °F
Feels Like 91 °F
N
5
Wind Variable Wind from South

Today
High -- | Low -- °F
--% Chance of Precip.
Yesterday
High -- | Low -- °F
Precip. -- in
5:52 AM 6:32 PM
Waning Crescent, 22% visible
Pressure 29.71 in
Visibility 3.1 miles
Clouds Scattered Clouds 2000 ft
Few 3000 ft
Mostly Cloudy 4000 ft
Heat Index 91 °F
Dew Point 77 °F
Humidity 84%
Rainfall 0.00 in
Snow Depth Not available.
UV 0 out of 12
Pollen Not available.
Air Quality Not available.
Flu Activity Not available.
METAR VLVT 201100Z 18004KT 5000 TS SCT020 FEW030CB BKN040 28/25 Q1006 CB,S NOSIG

More Conditions Fewer Conditions

Pressure 29.71 in
Visibility 3.1 miles
Clouds Scattered Clouds 2000 ft
Few 3000 ft
Mostly Cloudy 4000 ft
Heat Index 91 °F
Dew Point 77 °F
Humidity 84%
Rainfall 0.00 in
Snow Depth Not available.
UV 0 out of 12
Pollen Not available.
Air Quality Not available.
Flu Activity Not available.
METAR VLVT 201100Z 18004KT 5000 TS SCT020 FEW030CB BKN040 28/25 Q1006 CB,S NOSIG

More Conditions Fewer Conditions

10-Day Weather Forecast

Almanac

Astronomy

Aug. 20, 2014 Rise Set
Actual Time 5:52 AM ICT 6:32 PM ICT
Civil Twilight 5:30 AM ICT 6:54 PM ICT
Nautical Twilight 5:03 AM ICT 7:20 PM ICT
Astronomical Twilight 4:37 AM ICT 7:47 PM ICT
Moon 1:21 AM ICT 2:37 PM ICT
Length of Visible Light 13h 24m
Length of Day
12h 39m
Tomorrow will be 0m 54s shorter.
Waning Crescent, 22% of the Moon is Illuminated
Today
Waning Crescent
Aug 25
New
Sep 2
First Quarter
Sep 8
Full
Sep 15
Last Quarter

Yesterday's Extremes

Country Highs Country Lows

Community

WunderPhotos

Upload Photos

1,745,611 photos uploaded!

Nearby

Snow Depth

Not available.

Earthquake Activity

City Distance Mag. Time & Date
No recent earthquake activity has been reported nearby.
Minimum magnitude displayed is 2.5.

Coastal Water Temperatures

Place Temperature
No Stations Reporting

Nearby Weather Stations